Time;durP1;ratioP1;P1;durP2;ratioP2;P2;SDS_P1;SDS_P2;PMS_P1;PMS_P2;Temp;Humidity;BMP_temperature;BMP_pressure;BME280_temperature;BME280_humidity;BME280_pressure;Samples;Min_cycle;Max_cycle;Signal;HPM_P1;HPM_P2
2023/06/13 00:00:30;;;;;;;;;9.00;8.00;;;;;15.56;65.78;98864.59;6254406;28;96644;-70
2023/06/13 00:03:33;;;;;;;;;9.00;7.50;;;;;15.50;66.16;98873.72;6256707;27;96282;-70
2023/06/13 00:06:37;;;;;;;;;9.50;8.00;;;;;15.44;66.26;98869.31;6256775;28;97352;-70
2023/06/13 00:09:41;;;;;;;;;8.20;7.60;;;;;15.39;66.61;98871.16;6258365;27;96236;-70
2023/06/13 00:12:49;;;;;;;;;8.00;8.00;;;;;15.36;67.00;98866.22;6258069;27;96868;-70
2023/06/13 00:15:56;;;;;;;;;8.25;7.25;;;;;15.36;67.16;98863.50;6252756;28;96301;-70
2023/06/13 00:19:00;;;;;;;;;5.00;5.00;;;;;15.38;67.25;98858.66;6257396;28;96347;-70
2023/06/13 00:22:05;;;;;;;;;8.00;7.00;;;;;15.39;67.82;98852.97;6267810;27;98338;-70
2023/06/13 00:25:09;;;;;;;;;8.75;8.75;;;;;15.42;67.91;98835.34;6277289;27;96651;-70
2023/06/13 00:28:14;;;;;;;;;9.00;9.00;;;;;15.42;67.57;98838.06;6265618;27;98536;-70
2023/06/13 00:31:17;;;;;;;;;7.50;7.50;;;;;15.37;67.99;98841.53;6241057;28;98498;-70
2023/06/13 00:34:21;;;;;;;;;8.00;7.40;;;;;15.39;68.04;98846.72;6242213;28;96712;-70
2023/06/13 00:37:29;;;;;;;;;8.00;8.00;;;;;15.41;67.95;98850.81;6240895;28;97754;-70
2023/06/13 00:40:33;;;;;;;;;10.00;9.00;;;;;15.45;68.29;98851.13;6257266;27;96707;-70
2023/06/13 00:43:38;;;;;;;;;10.60;10.40;;;;;15.44;68.05;98850.28;6255859;28;96535;-70
2023/06/13 00:46:42;;;;;;;;;8.75;8.75;;;;;15.40;68.32;98845.63;6256227;27;96241;-70
2023/06/13 00:49:46;;;;;;;;;8.75;8.75;;;;;15.41;68.05;98853.53;6237362;28;96691;-70
2023/06/13 00:52:50;;;;;;;;;11.75;10.75;;;;;15.39;68.75;98844.81;6256658;28;96271;-70
2023/06/13 00:55:54;;;;;;;;;10.00;10.00;;;;;15.34;69.34;98839.34;6255764;28;96439;-70
2023/06/13 00:59:01;;;;;;;;;11.25;10.75;;;;;15.36;68.66;98833.63;6255072;27;96727;-70
2023/06/13 01:02:05;;;;;;;;;10.00;10.00;;;;;15.36;68.69;98834.44;6261885;27;96357;-69
2023/06/13 01:05:11;;;;;;;;;11.00;10.00;;;;;15.35;68.19;98826.53;6259825;27;96866;-69
2023/06/13 01:08:20;;;;;;;;;8.60;8.60;;;;;15.31;68.39;98825.41;6257065;28;96325;-69
2023/06/13 01:11:33;;;;;;;;;8.00;7.40;;;;;15.31;68.37;98819.97;6245688;27;96319;-72
2023/06/13 01:14:46;;;;;;;;;10.40;9.60;;;;;15.23;68.48;98820.44;6263655;27;96250;-70
2023/06/13 01:17:57;;;;;;;;;8.60;8.60;;;;;15.14;68.88;98828.22;6223853;28;97983;-71
2023/06/13 01:21:02;;;;;;;;;11.25;9.75;;;;;15.07;68.75;98825.69;6236457;27;96731;-71
2023/06/13 01:24:12;;;;;;;;;10.50;10.00;;;;;14.98;69.22;98810.06;6237374;28;96257;-70
2023/06/13 01:27:19;;;;;;;;;9.00;8.00;;;;;15.03;69.58;98821.00;6235861;28;97066;-71
2023/06/13 01:30:23;;;;;;;;;10.00;9.00;;;;;15.02;69.76;98820.19;6238966;28;96271;-70
2023/06/13 01:33:28;;;;;;;;;10.60;9.60;;;;;15.03;69.62;98812.84;6238882;28;96336;-71
2023/06/13 01:36:32;;;;;;;;;9.50;9.00;;;;;15.01;69.80;98817.72;6232629;27;99021;-71
2023/06/13 01:39:36;;;;;;;;;9.60;8.00;;;;;14.98;70.39;98819.03;6250587;27;96909;-70
2023/06/13 01:42:41;;;;;;;;;7.40;7.00;;;;;14.97;70.30;98822.00;6244178;27;96260;-71
2023/06/13 01:45:45;;;;;;;;;8.20;7.20;;;;;14.97;69.99;98822.00;6241662;28;97859;-71
2023/06/13 01:48:57;;;;;;;;;7.40;7.40;;;;;14.82;70.22;98800.09;6225310;28;97090;-71
2023/06/13 01:52:09;;;;;;;;;8.00;8.00;;;;;14.94;70.43;98817.09;6265388;27;96236;-70
2023/06/13 01:55:17;;;;;;;;;8.25;8.25;;;;;14.93;70.43;98818.97;6249757;27;96849;-70
2023/06/13 01:58:25;;;;;;;;;9.00;8.00;;;;;14.91;70.63;98815.69;6254421;27;96296;-70
2023/06/13 02:01:32;;;;;;;;;12.00;11.00;;;;;14.89;70.66;98800.72;6220871;28;96713;-71
2023/06/13 02:04:40;;;;;;;;;10.00;10.00;;;;;14.93;71.02;98807.28;6236011;28;96374;-70
2023/06/13 02:07:44;;;;;;;;;9.00;8.75;;;;;14.92;71.16;98806.47;6239566;28;96401;-71
2023/06/13 02:10:48;;;;;;;;;7.60;7.60;;;;;14.93;71.21;98805.41;6245203;27;96272;-71
2023/06/13 02:13:52;;;;;;;;;10.00;8.00;;;;;14.93;71.62;98804.59;6256498;27;96326;-71
2023/06/13 02:16:56;;;;;;;;;10.40;10.00;;;;;14.93;71.10;98799.16;6228802;27;97158;-71
2023/06/13 02:20:00;;;;;;;;;11.00;10.00;;;;;14.89;71.69;98798.03;6259019;27;96300;-72
2023/06/13 02:23:04;;;;;;;;;9.00;9.00;;;;;14.87;71.61;98800.16;6237274;27;96319;-69
2023/06/13 02:26:09;;;;;;;;;9.00;9.00;;;;;14.84;71.86;98797.94;6235850;28;96129;-71
2023/06/13 02:29:15;;;;;;;;;11.00;11.00;;;;;14.84;71.57;98798.78;6236034;28;96213;-72
2023/06/13 02:32:18;;;;;;;;;12.00;10.20;;;;;14.84;71.99;98800.66;6238778;27;96644;-72
2023/06/13 02:35:23;;;;;;;;;13.50;12.00;;;;;14.85;71.87;98803.13;6240370;27;96642;-70
2023/06/13 02:38:26;;;;;;;;;13.40;12.40;;;;;14.84;71.96;98803.38;6240581;28;96337;-70
2023/06/13 02:41:30;;;;;;;;;13.00;12.00;;;;;14.83;72.41;98807.97;6240041;28;96891;-70
2023/06/13 02:44:35;;;;;;;;;12.00;11.00;;;;;14.79;73.00;98806.84;6240289;27;96162;-70
2023/06/13 02:47:38;;;;;;;;;13.40;13.00;;;;;14.83;72.50;98804.44;6241485;27;96560;-70
2023/06/13 02:50:42;;;;;;;;;10.40;10.40;;;;;14.83;73.15;98802.56;6239372;28;96340;-69
2023/06/13 02:53:46;;;;;;;;;11.00;10.00;;;;;14.83;73.31;98807.97;6237629;28;96631;-70
2023/06/13 02:56:49;;;;;;;;;14.00;13.00;;;;;14.78;73.47;98804.38;6222767;28;96672;-70
2023/06/13 02:59:54;;;;;;;;;12.00;11.00;;;;;14.72;74.37;98803.47;6238992;27;97108;-70
2023/06/13 03:03:03;;;;;;;;;10.00;9.00;;;;;14.71;73.86;98801.84;6222166;28;96822;-70
2023/06/13 03:06:08;;;;;;;;;12.40;12.00;;;;;14.67;74.72;98806.94;6239241;28;96285;-70
2023/06/13 03:09:15;;;;;;;;;13.20;12.00;;;;;14.74;73.42;98807.59;6238704;28;96909;-70
2023/06/13 03:12:18;;;;;;;;;14.60;14.40;;;;;14.78;73.37;98809.81;6238314;28;96890;-70
2023/06/13 03:15:27;;;;;;;;;15.75;13.75;;;;;14.84;73.25;98806.91;6247636;27;96870;-70
2023/06/13 03:18:31;;;;;;;;;14.40;14.00;;;;;14.81;73.67;98812.81;6238489;27;96802;-70
2023/06/13 03:21:35;;;;;;;;;13.60;13.00;;;;;14.90;72.87;98805.09;6236493;28;96266;-70
2023/06/13 03:24:40;;;;;;;;;17.20;15.20;;;;;14.91;72.74;98802.09;6240752;27;96862;-70
2023/06/13 03:27:43;;;;;;;;;15.75;14.25;;;;;14.91;72.63;98806.72;6252878;27;97390;-68
2023/06/13 03:30:48;;;;;;;;;13.60;12.00;;;;;14.95;72.72;98810.59;6235356;27;96560;-69
2023/06/13 03:33:52;;;;;;;;;10.00;10.00;;;;;14.92;72.88;98809.19;6212065;28;98525;-69
2023/06/13 03:36:55;;;;;;;;;8.75;8.25;;;;;15.02;72.64;98800.34;6238373;28;96949;-68
2023/06/13 03:39:59;;;;;;;;;10.50;10.00;;;;;15.05;72.77;98802.59;6196417;28;98507;-70
2023/06/13 03:43:05;;;;;;;;;9.00;8.50;;;;;15.07;72.51;98806.66;6255863;27;96370;-71
2023/06/13 03:46:10;;;;;;;;;10.00;9.00;;;;;15.09;72.47;98804.53;6236195;28;96701;-71
2023/06/13 03:49:18;;;;;;;;;9.00;8.00;;;;;15.16;72.45;98802.44;6247228;27;96473;-69
2023/06/13 03:52:22;;;;;;;;;7.60;7.00;;;;;15.05;72.55;98806.09;6238878;27;97484;-69
2023/06/13 03:55:29;;;;;;;;;8.00;8.00;;;;;15.04;72.36;98809.06;6265573;27;97035;-71
2023/06/13 03:58:33;;;;;;;;;7.00;7.00;;;;;15.09;72.48;98801.81;6238041;27;96251;-70
2023/06/13 04:01:41;;;;;;;;;10.40;9.00;;;;;15.16;71.84;98802.44;6242069;27;97586;-70
2023/06/13 04:04:46;;;;;;;;;9.00;8.00;;;;;15.26;71.50;98807.16;6243227;27;97001;-71
2023/06/13 04:07:49;;;;;;;;;8.00;7.00;;;;;15.35;71.42;98797.47;6234153;27;97060;-72
2023/06/13 04:10:53;;;;;;;;;8.00;8.00;;;;;15.37;71.23;98802.69;6233533;27;97176;-72
2023/06/13 04:13:56;;;;;;;;;8.00;7.00;;;;;15.47;71.18;98808.22;6228761;28;98851;-73
2023/06/13 04:17:01;;;;;;;;;7.50;6.00;;;;;15.59;70.93;98806.19;6249552;28;96291;-73
2023/06/13 04:20:06;;;;;;;;;7.00;6.60;;;;;15.72;70.15;98799.53;6250457;27;96241;-73
2023/06/13 04:23:09;;;;;;;;;8.67;7.67;;;;;15.75;69.57;98799.03;6225198;28;96936;-71
2023/06/13 04:26:17;;;;;;;;;8.00;8.00;;;;;15.88;69.10;98795.91;6232076;28;96322;-72
2023/06/13 04:29:20;;;;;;;;;7.00;5.50;;;;;15.94;68.78;98803.81;6250878;28;96256;-73
2023/06/13 04:32:28;;;;;;;;;5.60;5.00;;;;;16.08;68.40;98797.97;6244250;27;96274;-72
2023/06/13 04:35:37;;;;;;;;;6.00;6.00;;;;;16.11;68.21;98794.72;6241087;28;98683;-72
2023/06/13 04:38:43;;;;;;;;;8.20;8.00;;;;;16.23;67.73;98798.91;6250851;27;96742;-72
2023/06/13 04:41:48;;;;;;;;;7.00;7.00;;;;;16.22;67.46;98800.00;6232583;28;97525;-73
2023/06/13 04:44:53;;;;;;;;;7.00;6.00;;;;;16.32;67.73;98794.59;6252204;27;96397;-72
2023/06/13 04:48:01;;;;;;;;;7.00;6.00;;;;;16.48;67.01;98799.09;6252449;28;96353;-72
2023/06/13 04:51:08;;;;;;;;;6.00;5.00;;;;;16.55;66.53;98790.72;6244506;27;96339;-71
2023/06/13 04:54:15;;;;;;;;;8.00;7.00;;;;;16.67;66.77;98790.53;6242976;28;99618;-71
2023/06/13 04:57:19;;;;;;;;;7.00;7.00;;;;;16.83;65.83;98798.53;6249590;28;96456;-72
2023/06/13 05:00:24;;;;;;;;;7.25;6.75;;;;;16.87;64.90;98782.47;6244885;28;96434;-71
2023/06/13 05:03:29;;;;;;;;;7.00;7.00;;;;;17.07;64.77;98798.91;6234451;28;98783;-71
2023/06/13 05:06:34;;;;;;;;;5.00;5.00;;;;;17.16;64.62;98794.56;6245520;28;98453;-72
2023/06/13 05:09:38;;;;;;;;;10.00;7.60;;;;;17.27;64.55;98804.44;6231254;28;98418;-72
2023/06/13 05:12:41;;;;;;;;;8.25;7.25;;;;;17.31;63.47;98799.25;6235613;28;98465;-71
2023/06/13 05:15:46;;;;;;;;;8.40;8.00;;;;;17.37;63.09;98797.38;6235079;27;96218;-72
2023/06/13 05:18:57;;;;;;;;;8.25;8.25;;;;;17.38;63.78;98794.41;6246391;27;96367;-72
2023/06/13 05:22:02;;;;;;;;;7.00;7.00;;;;;17.45;63.13;98797.66;6244497;27;96984;-72
2023/06/13 05:25:08;;;;;;;;;9.00;8.00;;;;;17.56;63.79;98795.78;6235882;27;96424;-72
2023/06/13 05:28:12;;;;;;;;;8.00;7.60;;;;;17.62;62.71;98802.94;6228945;28;98354;-71
2023/06/13 05:31:15;;;;;;;;;9.00;9.00;;;;;17.78;62.91;98796.44;6242143;27;96855;-72
2023/06/13 05:34:21;;;;;;;;;8.00;7.00;;;;;17.72;61.01;98800.22;6239143;28;97052;-71
2023/06/13 05:37:24;;;;;;;;;6.20;6.20;;;;;17.79;61.12;98806.22;6241230;27;96597;-72
2023/06/13 05:40:27;;;;;;;;;8.00;8.00;;;;;17.94;61.58;98794.53;6241451;27;96220;-72
2023/06/13 05:43:31;;;;;;;;;7.00;7.00;;;;;18.08;60.61;98807.34;6242299;27;96375;-72
2023/06/13 05:46:34;;;;;;;;;10.00;8.75;;;;;18.03;60.61;98804.63;6243124;27;96214;-72
2023/06/13 05:49:39;;;;;;;;;6.75;6.75;;;;;18.05;60.97;98797.00;6242956;27;96328;-72
2023/06/13 05:52:42;;;;;;;;;8.00;7.25;;;;;18.22;60.80;98799.47;6243321;27;96272;-71
2023/06/13 05:55:46;;;;;;;;;9.00;8.00;;;;;18.19;59.64;98797.25;6232741;28;96659;-71
2023/06/13 05:58:50;;;;;;;;;8.00;7.60;;;;;18.29;59.47;98804.63;6235097;27;96652;-71
2023/06/13 06:01:53;;;;;;;;;8.00;7.00;;;;;18.48;59.53;98802.97;6234078;28;97265;-72
2023/06/13 06:05:00;;;;;;;;;8.00;8.00;;;;;18.48;58.02;98772.94;6238416;28;96362;-73
2023/06/13 06:08:04;;;;;;;;;8.00;7.40;;;;;18.73;57.58;98791.22;6240899;28;96345;-72
2023/06/13 06:11:07;;;;;;;;;7.00;6.20;;;;;18.66;57.72;98796.16;6239276;28;96368;-72
2023/06/13 06:14:10;;;;;;;;;9.00;8.00;;;;;18.71;58.19;98796.16;6239292;27;96673;-71
2023/06/13 06:17:14;;;;;;;;;9.00;8.60;;;;;18.71;57.56;98798.88;6240690;27;96350;-70
2023/06/13 06:20:19;;;;;;;;;6.00;5.00;;;;;18.63;57.55;98794.78;6242148;27;96379;-68
2023/06/13 06:23:23;;;;;;;;;7.50;7.00;;;;;18.58;57.93;98794.81;6242117;28;96271;-69
2023/06/13 06:26:26;;;;;;;;;5.40;5.40;;;;;18.68;58.40;98792.06;6242323;28;99471;-69
2023/06/13 06:29:31;;;;;;;;;7.00;5.80;;;;;18.77;58.94;98795.84;6244673;27;96258;-69
2023/06/13 06:32:35;;;;;;;;;5.60;5.60;;;;;19.08;58.26;98803.97;6243497;28;98869;-70
2023/06/13 06:35:40;;;;;;;;;8.00;7.25;;;;;19.40;57.54;98791.50;6246031;28;96362;-70
2023/06/13 06:38:43;;;;;;;;;8.40;7.40;;;;;19.54;55.23;98796.41;6242177;28;97000;-69
2023/06/13 06:41:46;;;;;;;;;5.50;5.25;;;;;19.52;54.40;98763.88;6243405;27;96298;-68
2023/06/13 06:44:55;;;;;;;;;7.40;6.00;;;;;19.92;54.01;98803.81;6242061;28;96850;-68
2023/06/13 06:47:59;;;;;;;;;6.40;5.40;;;;;20.08;52.18;98793.59;6243826;28;96516;-68
2023/06/13 06:51:04;;;;;;;;;5.20;4.20;;;;;20.22;51.06;98795.38;6243941;27;96428;-69
2023/06/13 06:54:07;;;;;;;;;5.00;4.75;;;;;20.44;51.52;98799.59;6244952;28;96227;-71
2023/06/13 06:57:11;;;;;;;;;5.00;5.00;;;;;20.77;50.44;98792.44;6244630;28;98722;-69
2023/06/13 07:00:15;;;;;;;;;6.00;5.00;;;;;21.02;49.52;98794.88;6244325;28;96288;-69
2023/06/13 07:03:20;;;;;;;;;2.40;2.40;;;;;21.09;46.46;98787.13;6220896;28;96674;-69
2023/06/13 07:06:25;;;;;;;;;2.00;2.00;;;;;21.04;45.13;98785.25;6244507;28;96675;-71
2023/06/13 07:09:28;;;;;;;;;3.00;3.00;;;;;21.18;45.71;98783.47;6244686;27;96241;-69
2023/06/13 07:12:32;;;;;;;;;5.00;4.00;;;;;21.35;45.30;98773.94;6243068;28;96492;-69
2023/06/13 07:15:35;;;;;;;;;2.00;1.60;;;;;21.62;42.85;98779.59;6244679;28;98399;-70
2023/06/13 07:18:39;;;;;;;;;3.00;3.00;;;;;21.26;40.97;98786.69;6228653;28;96708;-70
2023/06/13 07:21:44;;;;;;;;;2.00;2.00;;;;;21.00;42.43;98758.72;6245116;28;97252;-70
2023/06/13 07:24:47;;;;;;;;;3.00;3.00;;;;;21.09;41.85;98787.13;6242165;27;96693;-70
2023/06/13 07:27:51;;;;;;;;;1.60;1.60;;;;;21.14;42.66;98782.44;6240490;27;96587;-69
2023/06/13 07:30:55;;;;;;;;;3.00;2.75;;;;;21.30;43.37;98771.28;6244329;28;96633;-70
2023/06/13 07:33:58;;;;;;;;;3.00;2.00;;;;;21.36;43.34;98778.31;6224918;28;98380;-70
2023/06/13 07:37:04;;;;;;;;;4.00;3.40;;;;;21.42;42.92;98771.66;6246022;28;96376;-70
2023/06/13 07:40:09;;;;;;;;;4.33;4.00;;;;;21.44;40.73;98769.44;6249235;27;96490;-72
2023/06/13 07:43:12;;;;;;;;;5.00;4.60;;;;;21.37;41.44;98769.78;6279942;27;96211;-73
2023/06/13 07:46:15;;;;;;;;;5.00;5.00;;;;;21.46;42.53;98768.00;6269461;27;96623;-73
2023/06/13 07:49:19;;;;;;;;;4.00;3.40;;;;;21.59;41.80;98771.97;6276771;27;96259;-73
2023/06/13 07:52:23;;;;;;;;;2.00;1.00;;;;;22.03;41.83;98766.94;6265333;27;96245;-72
2023/06/13 07:55:27;;;;;;;;;2.00;1.00;;;;;22.61;40.60;98769.22;6265733;28;98793;-72
2023/06/13 07:58:30;;;;;;;;;3.00;3.00;;;;;23.00;37.62;98768.78;6251527;28;98550;-69
2023/06/13 08:01:34;;;;;;;;;3.00;3.00;;;;;23.41;38.45;98754.97;6270510;27;96737;-72
2023/06/13 08:04:37;;;;;;;;;3.00;2.00;;;;;23.46;35.26;98771.38;6268368;28;96235;-73
2023/06/13 08:07:58;;;;;;;;;1.75;1.75;;;;;23.37;36.65;98780.66;6269525;27;96235;-72
2023/06/13 08:11:01;;;;;;;;;2.20;2.20;;;;;23.07;36.94;98774.66;6269538;27;97015;-73
2023/06/13 08:14:07;;;;;;;;;2.00;2.00;;;;;22.71;36.65;98773.75;6270298;27;96255;-73
2023/06/13 08:17:11;;;;;;;;;1.40;1.40;;;;;22.56;37.46;98779.47;6269521;28;96816;-72
2023/06/13 08:20:15;;;;;;;;;2.00;2.00;;;;;22.53;37.97;98780.88;6269029;28;98497;-71
2023/06/13 08:23:20;;;;;;;;;3.00;3.00;;;;;22.43;37.42;98772.84;6269501;28;96171;-72
2023/06/13 08:26:24;;;;;;;;;3.00;2.60;;;;;22.68;37.81;98777.03;6267342;27;97706;-71
2023/06/13 08:29:28;;;;;;;;;1.25;1.00;;;;;22.76;36.62;98788.19;6268834;28;98405;-70
2023/06/13 08:32:32;;;;;;;;;2.00;2.00;;;;;22.39;37.41;98794.59;6252686;28;96963;-71
2023/06/13 08:35:36;;;;;;;;;2.00;1.00;;;;;22.66;37.80;98776.56;6252610;27;96880;-71
2023/06/13 08:38:41;;;;;;;;;2.00;2.00;;;;;22.59;37.63;98785.19;6269179;28;96249;-71
2023/06/13 08:41:56;;;;;;;;;3.00;3.00;;;;;22.59;38.36;98781.63;6270407;27;96764;-71
2023/06/13 08:45:01;;;;;;;;;2.25;2.25;;;;;22.23;39.24;98781.44;6252210;28;96495;-71
2023/06/13 08:48:05;;;;;;;;;2.00;2.00;;;;;22.43;38.96;98781.88;6268365;27;96869;-71
2023/06/13 08:51:13;;;;;;;;;2.00;1.00;;;;;22.51;38.84;98777.63;6269864;27;96259;-71
2023/06/13 08:54:21;;;;;;;;;2.00;2.00;;;;;22.58;39.09;98782.75;6269775;27;96643;-71
2023/06/13 08:57:28;;;;;;;;;1.00;1.00;;;;;22.45;37.69;98785.16;6269299;28;96654;-72
2023/06/13 09:00:35;;;;;;;;;2.00;2.00;;;;;22.38;37.68;98779.22;6268406;27;96299;-72
2023/06/13 09:03:40;;;;;;;;;1.00;1.00;;;;;22.55;36.68;98791.59;6269503;27;96293;-71
2023/06/13 09:06:45;;;;;;;;;2.00;2.00;;;;;22.52;37.25;98790.28;6268770;28;96370;-72
2023/06/13 09:09:51;;;;;;;;;1.50;1.50;;;;;22.77;38.34;98794.53;6268984;28;96686;-72
2023/06/13 09:12:55;;;;;;;;;2.00;1.00;;;;;22.93;37.89;98793.09;6269646;27;96254;-71
2023/06/13 09:15:59;;;;;;;;;1.00;1.00;;;;;23.17;37.45;98790.94;6269559;27;97426;-71
2023/06/13 09:19:02;;;;;;;;;3.00;3.00;;;;;23.07;35.64;98793.91;6251925;28;96667;-73
2023/06/13 09:22:06;;;;;;;;;1.00;1.00;;;;;23.13;36.63;98791.88;6269059;28;96387;-71
2023/06/13 09:25:16;;;;;;;;;2.00;2.00;;;;;23.27;36.73;98792.69;6269163;28;96311;-72
2023/06/13 09:28:30;;;;;;;;;1.00;1.00;;;;;23.23;36.92;98789.75;6269181;28;96653;-73
2023/06/13 09:31:37;;;;;;;;;3.00;2.00;;;;;23.13;37.51;98778.94;6269186;28;96304;-72
2023/06/13 09:34:41;;;;;;;;;2.00;2.00;;;;;22.55;36.79;98775.09;6267819;28;98553;-71
2023/06/13 09:37:45;;;;;;;;;1.50;1.50;;;;;22.56;38.05;98779.47;6268652;27;96700;-70
2023/06/13 09:40:50;;;;;;;;;1.00;1.00;;;;;22.46;36.46;98778.56;6272343;28;96291;-72
2023/06/13 09:43:53;;;;;;;;;2.00;1.00;;;;;22.69;36.78;98767.69;6257155;28;96685;-71
2023/06/13 09:46:56;;;;;;;;;1.00;0.20;;;;;22.94;35.70;98775.47;6273785;27;96240;-71
2023/06/13 09:50:01;;;;;;;;;2.00;2.00;;;;;23.29;36.14;98780.25;6273614;28;96415;-71
2023/06/13 09:53:05;;;;;;;;;1.20;1.20;;;;;23.25;35.26;98787.50;6271793;28;96276;-71
2023/06/13 09:56:10;;;;;;;;;2.00;2.00;;;;;23.40;35.16;98777.31;6270562;27;96278;-71
2023/06/13 09:59:17;;;;;;;;;2.00;2.00;;;;;23.33;34.44;98773.03;6271255;27;96057;-71
2023/06/13 10:02:21;;;;;;;;;4.00;3.00;;;;;23.67;35.16;98769.00;6270457;28;96450;-71
2023/06/13 10:05:25;;;;;;;;;2.00;2.00;;;;;23.86;32.89;98772.41;6270277;28;98556;-71
2023/06/13 10:08:31;;;;;;;;;1.20;1.20;;;;;23.85;33.14;98767.22;6255176;28;98495;-71
2023/06/13 10:11:38;;;;;;;;;3.00;2.00;;;;;24.16;34.13;98765.34;6273667;28;96452;-73
2023/06/13 10:14:43;;;;;;;;;1.00;1.00;;;;;24.48;31.56;98756.03;6256548;28;98495;-72
2023/06/13 10:17:47;;;;;;;;;2.20;2.20;;;;;24.76;32.11;98754.72;6272297;28;98396;-71
2023/06/13 10:20:51;;;;;;;;;2.00;2.00;;;;;24.66;31.58;98743.97;6278502;27;96716;-72
2023/06/13 10:23:57;;;;;;;;;2.00;2.00;;;;;24.09;31.52;98746.50;6297088;27;96640;-71
2023/06/13 10:27:04;;;;;;;;;2.00;2.00;;;;;24.26;32.05;98748.59;6273405;27;97126;-72
2023/06/13 10:30:26;;;;;;;;;4.00;3.40;;;;;24.40;31.53;98754.03;6252085;28;98363;-73
2023/06/13 10:33:52;;;;;;;;;2.00;2.00;;;;;24.36;32.51;98751.09;6270029;28;96799;-72
2023/06/13 10:37:30;;;;;;;;;3.00;3.00;;;;;24.73;32.67;98741.53;6269898;28;96811;-73
2023/06/13 10:41:07;;;;;;;;;3.00;3.00;;;;;24.77;31.48;98737.06;6251864;27;96241;-73
2023/06/13 10:44:18;;;;;;;;;2.40;2.40;;;;;24.75;30.81;98739.28;6267197;28;97246;-72
2023/06/13 10:47:23;;;;;;;;;4.00;3.60;;;;;24.47;31.09;98730.41;6269447;28;96265;-71
2023/06/13 10:50:26;;;;;;;;;4.40;4.00;;;;;24.62;31.49;98742.97;6270191;27;97451;-71
2023/06/13 10:53:32;;;;;;;;;6.40;6.40;;;;;24.88;31.59;98735.63;6270986;28;96560;-71
2023/06/13 10:56:39;;;;;;;;;6.00;6.00;;;;;24.91;30.71;98735.03;6271641;27;97268;-71
2023/06/13 10:59:44;;;;;;;;;6.00;6.00;;;;;24.77;31.14;98726.03;6268286;28;96721;-73
2023/06/13 11:02:47;;;;;;;;;3.60;3.60;;;;;24.65;32.17;98730.50;6270278;27;96232;-72
2023/06/13 11:05:51;;;;;;;;;5.00;5.00;;;;;24.61;32.32;98735.84;6263388;28;96598;-73
2023/06/13 11:09:18;;;;;;;;;3.00;3.00;;;;;24.76;32.86;98740.13;6261911;28;98335;-73
2023/06/13 11:12:24;;;;;;;;;3.00;3.00;;;;;24.78;31.16;98733.13;6271067;28;96333;-71
2023/06/13 11:15:29;;;;;;;;;5.40;5.40;;;;;24.96;31.59;98725.78;6270319;27;96317;-72
2023/06/13 11:18:35;;;;;;;;;4.60;4.60;;;;;25.10;31.85;98725.66;6211023;28;98329;-72
2023/06/13 11:21:44;;;;;;;;;5.00;5.00;;;;;25.25;31.41;98727.97;6238488;27;96970;-72
2023/06/13 11:24:48;;;;;;;;;4.20;4.20;;;;;25.27;30.69;98729.25;6226550;28;96700;-72
2023/06/13 11:27:51;;;;;;;;;5.00;4.50;;;;;24.87;30.24;98728.53;6237507;28;97125;-72
2023/06/13 11:31:00;;;;;;;;;3.80;3.80;;;;;24.68;30.42;98730.66;6236596;28;96575;-72
2023/06/13 11:34:06;;;;;;;;;4.00;4.00;;;;;24.68;30.55;98727.91;6233935;28;96816;-72
2023/06/13 11:37:29;;;;;;;;;4.00;4.00;;;;;24.65;32.34;98722.22;6221712;28;96316;-72
2023/06/13 11:40:39;;;;;;;;;3.75;3.75;;;;;24.39;30.98;98725.66;6234522;28;96538;-72
2023/06/13 11:43:44;;;;;;;;;2.40;2.40;;;;;24.32;31.73;98718.97;6233063;28;98463;-72
2023/06/13 11:46:50;;;;;;;;;3.20;3.20;;;;;24.41;31.43;98726.16;6237013;28;96375;-72
2023/06/13 11:49:57;;;;;;;;;3.00;3.00;;;;;24.63;31.35;98724.50;6237757;28;96721;-73
2023/06/13 11:53:04;;;;;;;;;6.00;5.25;;;;;24.71;31.29;98707.16;6212684;28;98582;-73
2023/06/13 11:56:08;;;;;;;;;4.60;4.60;;;;;24.92;31.12;98720.06;6216847;28;98474;-73
2023/06/13 11:59:17;;;;;;;;;4.20;4.20;;;;;25.06;30.80;98708.13;6222848;27;97362;-73
2023/06/13 12:02:22;;;;;;;;;4.60;4.60;;;;;24.99;29.86;98723.19;6231652;27;96426;-73
2023/06/13 12:05:26;;;;;;;;;4.00;4.00;;;;;24.76;29.91;98716.13;6227143;28;96568;-73
2023/06/13 12:08:30;;;;;;;;;4.00;4.00;;;;;24.78;29.53;98719.34;6209811;28;98583;-73
2023/06/13 12:11:34;;;;;;;;;5.00;5.00;;;;;24.18;29.99;98713.56;6225054;28;96609;-73
2023/06/13 12:14:38;;;;;;;;;3.20;3.20;;;;;23.99;31.61;98712.91;6236280;28;96282;-73
2023/06/13 12:17:57;;;;;;;;;3.00;2.00;;;;;24.11;32.01;98702.13;6237278;28;97167;-73
2023/06/13 12:21:01;;;;;;;;;2.00;2.00;;;;;24.29;31.96;98705.84;6234981;28;96600;-72
2023/06/13 12:24:07;;;;;;;;;3.00;3.00;;;;;24.29;30.96;98712.16;6235774;28;97276;-72
2023/06/13 12:27:12;;;;;;;;;3.00;3.00;;;;;24.51;31.36;98706.59;6231756;28;96268;-72
2023/06/13 12:30:17;;;;;;;;;4.00;4.00;;;;;24.66;31.49;98710.06;6224905;28;96628;-72
2023/06/13 12:33:34;;;;;;;;;4.75;4.75;;;;;24.22;30.42;98691.69;6233347;27;96580;-72
2023/06/13 12:36:40;;;;;;;;;2.00;2.00;;;;;23.88;31.91;98701.34;6222149;28;96668;-72
2023/06/13 12:40:06;;;;;;;;;3.00;3.00;;;;;23.24;33.07;98705.28;6223465;28;96425;-71
2023/06/13 12:43:10;;;;;;;;;3.00;3.00;;;;;23.33;33.17;98712.50;6225112;28;96381;-72
2023/06/13 12:46:14;;;;;;;;;2.50;2.50;;;;;23.41;33.27;98699.94;6229083;28;96822;-72
2023/06/13 12:49:20;;;;;;;;;2.00;1.60;;;;;23.44;32.51;98715.03;6211164;28;98574;-72
2023/06/13 12:52:24;;;;;;;;;4.00;4.00;;;;;23.58;33.25;98713.88;6233305;28;96660;-72
2023/06/13 12:55:29;;;;;;;;;3.00;3.00;;;;;23.34;32.84;98713.31;6223245;27;97478;-73
2023/06/13 12:58:35;;;;;;;;;3.00;2.75;;;;;23.10;33.22;98708.06;6226033;28;96542;-73
2023/06/13 13:01:38;;;;;;;;;2.20;2.00;;;;;23.50;34.01;98706.38;6235704;28;97737;-73
2023/06/13 13:04:44;;;;;;;;;6.00;5.00;;;;;23.83;33.13;98695.97;6237704;27;97180;-73
2023/06/13 13:08:07;;;;;;;;;4.00;4.00;;;;;23.89;32.69;98691.97;6232962;27;96701;-73
2023/06/13 13:11:26;;;;;;;;;3.00;3.00;;;;;24.32;32.84;98685.91;6248255;27;97003;-72
2023/06/13 13:14:30;;;;;;;;;1.20;1.20;;;;;24.83;32.73;98677.84;6233215;27;97494;-71
2023/06/13 13:17:33;;;;;;;;;3.00;3.00;;;;;24.85;30.29;98674.78;6239871;27;96974;-72
2023/06/13 13:20:38;;;;;;;;;2.00;2.00;;;;;24.69;30.77;98676.34;6235926;28;96382;-72
2023/06/13 13:23:42;;;;;;;;;3.00;3.00;;;;;24.33;31.56;98666.31;6231909;28;97022;-71
2023/06/13 13:26:48;;;;;;;;;1.00;1.00;;;;;24.14;31.32;98679.47;6239787;27;96648;-73
2023/06/13 13:29:51;;;;;;;;;2.20;2.00;;;;;24.00;31.82;98676.78;6234904;28;96568;-73
2023/06/13 13:32:55;;;;;;;;;3.00;3.00;;;;;23.74;32.78;98678.56;6235108;28;96734;-73
2023/06/13 13:36:00;;;;;;;;;2.00;2.00;;;;;23.89;33.64;98686.44;6222905;27;98112;-72
2023/06/13 13:39:04;;;;;;;;;2.00;2.00;;;;;24.21;33.10;98681.81;6223302;28;96548;-72
2023/06/13 13:42:07;;;;;;;;;1.25;1.25;;;;;23.80;32.67;98684.75;6226156;27;97385;-73
2023/06/13 13:45:27;;;;;;;;;4.40;4.00;;;;;23.92;33.51;98679.50;6231645;28;96928;-73
2023/06/13 13:48:31;;;;;;;;;2.00;2.00;;;;;24.05;33.95;98678.59;6239043;27;97588;-73
2023/06/13 13:51:37;;;;;;;;;3.40;3.40;;;;;24.07;32.98;98679.91;6237872;27;96488;-72
2023/06/13 13:54:41;;;;;;;;;2.00;2.00;;;;;24.15;32.72;98681.91;6264385;27;97034;-70
2023/06/13 13:57:45;;;;;;;;;2.00;2.00;;;;;24.26;33.66;98678.91;6259862;27;96217;-72
2023/06/13 14:00:48;;;;;;;;;2.00;2.00;;;;;24.50;32.89;98682.09;6247850;27;97071;-72
2023/06/13 14:03:51;;;;;;;;;3.00;2.00;;;;;24.71;33.48;98680.41;6266959;28;96765;-72
2023/06/13 14:06:56;;;;;;;;;4.00;4.00;;;;;24.38;32.02;98688.22;6250420;28;98577;-72
2023/06/13 14:09:59;;;;;;;;;2.20;2.20;;;;;24.30;32.18;98677.97;6266146;27;96804;-72
2023/06/13 14:13:04;;;;;;;;;6.00;6.00;;;;;24.31;32.68;98678.78;6253489;27;98380;-73
2023/06/13 14:16:08;;;;;;;;;3.00;3.00;;;;;24.58;32.28;98687.66;6249336;27;97642;-72
2023/06/13 14:19:11;;;;;;;;;2.00;2.00;;;;;24.58;31.95;98676.63;6265699;27;96381;-72
2023/06/13 14:22:16;;;;;;;;;4.00;4.00;;;;;24.71;32.08;98674.91;6249282;27;98395;-72
2023/06/13 14:25:19;;;;;;;;;3.00;3.00;;;;;24.83;31.42;98672.34;6272925;27;96411;-71
2023/06/13 14:28:23;;;;;;;;;3.40;3.00;;;;;24.98;31.34;98680.19;6269213;28;96300;-72
2023/06/13 14:31:26;;;;;;;;;2.00;1.20;;;;;25.05;31.76;98682.50;6269707;27;96372;-72